createdAt,value
2022-10-21T00:00:24.000Z,9.41
2022-10-21T00:01:24.056Z,9.40
2022-10-21T00:02:23.990Z,9.37
2022-10-21T00:03:24.003Z,9.40
2022-10-21T00:04:23.929Z,9.41
2022-10-21T00:05:23.959Z,9.41
2022-10-21T00:06:23.934Z,9.40
2022-10-21T00:07:24.053Z,9.40
2022-10-21T00:08:23.913Z,9.41
2022-10-21T00:09:23.904Z,9.40
2022-10-21T00:10:23.970Z,9.37
2022-10-21T00:11:23.869Z,9.41
2022-10-21T00:12:23.844Z,9.40
2022-10-21T00:13:23.882Z,9.40
2022-10-21T00:14:23.804Z,9.42
2022-10-21T00:15:23.873Z,9.44
2022-10-21T00:16:23.783Z,9.47
2022-10-21T00:17:23.864Z,9.45
2022-10-21T00:18:23.802Z,9.47
2022-10-21T00:19:23.812Z,9.47
2022-10-21T00:21:23.809Z,9.45
2022-10-21T00:22:23.766Z,9.45
2022-10-21T00:23:23.775Z,9.45
2022-10-21T00:24:23.766Z,9.44
2022-10-21T00:25:23.729Z,9.44
2022-10-21T00:26:23.753Z,9.45
2022-10-21T00:27:23.675Z,9.48
2022-10-21T00:28:23.707Z,9.48
2022-10-21T00:29:23.650Z,9.47
2022-10-21T00:30:23.698Z,9.47
2022-10-21T00:31:23.698Z,9.45
2022-10-21T00:32:23.625Z,9.44
2022-10-21T00:33:23.705Z,9.44
2022-10-21T00:34:28.395Z,9.41
2022-10-21T00:35:24.673Z,9.41
2022-10-21T00:36:23.654Z,9.42
2022-10-21T00:37:23.580Z,9.37
2022-10-21T00:38:23.588Z,9.40
2022-10-21T00:39:23.548Z,9.40
2022-10-21T00:40:23.555Z,9.40
2022-10-21T00:41:23.591Z,9.36
2022-10-21T00:42:23.532Z,9.29
2022-10-21T00:43:23.512Z,9.27
2022-10-21T00:44:23.493Z,9.29
2022-10-21T00:45:23.570Z,9.30
2022-10-21T00:46:23.461Z,9.30
2022-10-21T00:47:23.455Z,9.33
2022-10-21T00:48:23.455Z,9.33
2022-10-21T00:49:23.444Z,9.32
2022-10-21T00:50:23.447Z,9.32
2022-10-21T00:51:23.469Z,9.23
2022-10-21T00:52:23.402Z,9.23
2022-10-21T00:53:23.404Z,9.24
2022-10-21T00:54:23.384Z,9.19
2022-10-21T00:55:23.373Z,9.24
2022-10-21T00:56:23.384Z,9.18
2022-10-21T00:57:23.355Z,9.15
2022-10-21T00:58:23.342Z,9.18
2022-10-21T00:59:23.334Z,9.16
2022-10-21T01:00:23.314Z,9.16
2022-10-21T01:01:23.416Z,9.18
2022-10-21T01:02:23.331Z,9.14
2022-10-21T01:03:23.311Z,9.14
2022-10-21T01:04:23.331Z,9.14
2022-10-21T01:05:23.310Z,9.11
2022-10-21T01:06:23.349Z,9.06
2022-10-21T01:07:23.279Z,9.06
2022-10-21T01:08:23.253Z,9.09
2022-10-21T01:09:23.217Z,9.04
2022-10-21T01:10:23.218Z,9.06
2022-10-21T01:11:23.228Z,9.04
2022-10-21T01:12:23.239Z,9.04
2022-10-21T01:13:23.218Z,9.06
2022-10-21T01:14:23.168Z,9.06
2022-10-21T01:15:23.157Z,9.06
2022-10-21T01:16:23.139Z,9.06
2022-10-21T01:17:45.177Z,9.01
2022-10-21T01:18:24.135Z,8.99
2022-10-21T01:19:23.117Z,9.04
2022-10-21T01:20:23.124Z,9.06
2022-10-21T01:21:23.099Z,9.03
2022-10-21T01:22:23.122Z,9.03
2022-10-21T01:23:23.071Z,8.99
2022-10-21T01:24:23.070Z,8.98
2022-10-21T01:25:23.041Z,8.98
2022-10-21T01:26:23.042Z,8.95
2022-10-21T01:27:23.083Z,8.93
2022-10-21T01:28:23.061Z,8.93
2022-10-21T01:29:23.008Z,8.96
2022-10-21T01:30:22.991Z,8.96
2022-10-21T01:31:22.983Z,8.98
2022-10-21T01:32:22.965Z,8.92
2022-10-21T01:33:23.014Z,8.89
2022-10-21T01:34:22.960Z,8.90
2022-10-21T01:35:22.942Z,8.89
2022-10-21T01:36:22.923Z,8.86
2022-10-21T01:37:22.922Z,8.89
2022-10-21T01:38:23.233Z,8.85
2022-10-21T01:39:22.902Z,8.83
2022-10-21T01:40:22.891Z,8.85
2022-10-21T01:41:22.895Z,8.85
2022-10-21T01:42:22.882Z,8.93
2022-10-21T01:43:22.857Z,8.90
2022-10-21T01:44:22.872Z,8.89
2022-10-21T01:45:22.838Z,8.88
2022-10-21T01:46:22.827Z,8.89
2022-10-21T01:47:22.832Z,8.89
2022-10-21T01:48:22.809Z,8.89
2022-10-21T01:49:22.824Z,8.86
2022-10-21T01:50:22.776Z,8.88
2022-10-21T01:51:22.831Z,8.81
2022-10-21T01:52:22.776Z,8.77
2022-10-21T01:53:22.745Z,8.78
2022-10-21T01:54:22.790Z,8.80
2022-10-21T01:55:22.723Z,8.81
2022-10-21T01:56:22.745Z,8.85
2022-10-21T01:57:22.721Z,8.86
2022-10-21T01:58:22.702Z,8.80
2022-10-21T01:59:22.693Z,8.74
2022-10-21T02:00:22.727Z,8.74
2022-10-21T02:01:22.688Z,8.75
2022-10-21T02:02:22.660Z,8.74
2022-10-21T02:03:22.638Z,8.71
2022-10-21T02:04:22.646Z,8.71
2022-10-21T02:05:22.633Z,8.72
2022-10-21T02:06:22.663Z,8.71
2022-10-21T02:07:22.598Z,8.74
2022-10-21T02:08:22.588Z,8.74
2022-10-21T02:09:22.668Z,8.81
2022-10-21T02:10:22.553Z,8.81
2022-10-21T02:11:22.574Z,8.83
2022-10-21T02:12:22.584Z,8.77
2022-10-21T02:13:22.534Z,8.74
2022-10-21T02:14:22.512Z,8.68
2022-10-21T02:15:22.523Z,8.68
2022-10-21T02:16:22.498Z,8.68
2022-10-21T02:17:22.491Z,8.71
2022-10-21T02:18:22.511Z,8.74
2022-10-21T02:19:22.547Z,8.74
2022-10-21T02:20:22.452Z,8.74
2022-10-21T02:21:22.445Z,8.75
2022-10-21T02:22:22.441Z,8.78
2022-10-21T02:23:22.437Z,8.77
2022-10-21T02:24:22.480Z,8.80
2022-10-21T02:25:22.407Z,8.83
2022-10-21T02:26:22.421Z,8.85
2022-10-21T02:27:22.377Z,8.88
2022-10-21T02:28:22.379Z,8.89
2022-10-21T02:29:22.355Z,8.89
2022-10-21T02:30:22.384Z,8.85
2022-10-21T02:31:22.337Z,8.86
2022-10-21T02:32:22.318Z,8.89
2022-10-21T02:33:22.321Z,8.88
2022-10-21T02:34:22.297Z,8.81
2022-10-21T02:35:22.295Z,8.74
2022-10-21T02:36:22.304Z,8.72
2022-10-21T02:37:22.282Z,8.74
2022-10-21T02:38:22.257Z,8.77
2022-10-21T02:39:22.256Z,8.80
2022-10-21T02:40:22.243Z,8.77
2022-10-21T02:41:22.229Z,8.83
2022-10-21T02:42:22.277Z,8.83
2022-10-21T02:43:22.231Z,8.80
2022-10-21T02:44:22.193Z,8.85
2022-10-21T02:45:22.195Z,8.86
2022-10-21T02:46:22.167Z,8.88
2022-10-21T02:47:22.258Z,8.90
2022-10-21T02:48:22.159Z,8.88
2022-10-21T02:49:22.164Z,8.85
2022-10-21T02:50:22.139Z,8.85
2022-10-21T02:51:22.141Z,8.86
2022-10-21T02:52:22.110Z,8.86
2022-10-21T02:53:22.310Z,8.90
2022-10-21T02:54:22.082Z,8.92
2022-10-21T02:55:22.075Z,8.95
2022-10-21T02:56:22.140Z,8.96
2022-10-21T02:57:22.059Z,8.99
2022-10-21T02:58:22.039Z,9.01
2022-10-21T02:59:22.079Z,9.03
2022-10-21T03:00:22.030Z,9.06
2022-10-21T03:01:22.102Z,9.03
2022-10-21T03:02:22.007Z,9.01
2022-10-21T03:03:22.001Z,8.98
2022-10-21T03:04:21.982Z,9.01
2022-10-21T03:05:22.049Z,9.04
2022-10-21T03:06:21.950Z,9.06
2022-10-21T03:07:21.962Z,9.03
2022-10-21T03:08:21.949Z,9.06
2022-10-21T03:09:21.930Z,9.06
2022-10-21T03:10:21.917Z,9.09
2022-10-21T03:11:21.931Z,9.11
2022-10-21T03:12:21.884Z,9.09
2022-10-21T03:13:21.906Z,9.09
2022-10-21T03:14:21.933Z,9.09
2022-10-21T03:15:21.883Z,9.09
2022-10-21T03:16:21.939Z,9.09
2022-10-21T03:17:25.099Z,9.04
2022-10-21T03:18:21.846Z,9.04
2022-10-21T03:19:21.845Z,9.08
2022-10-21T03:20:21.803Z,9.08
2022-10-21T03:21:21.852Z,9.11
2022-10-21T03:22:21.786Z,9.11
2022-10-21T03:23:21.802Z,9.09
2022-10-21T03:24:28.393Z,9.09
2022-10-21T03:25:22.757Z,9.04
2022-10-21T03:26:21.743Z,9.06
2022-10-21T03:27:21.901Z,9.09
2022-10-21T03:28:21.735Z,9.12
2022-10-21T03:29:21.735Z,9.11
2022-10-21T03:30:21.705Z,9.09
2022-10-21T03:31:21.687Z,9.09
2022-10-21T03:32:21.666Z,9.11
2022-10-21T03:33:21.706Z,9.12
2022-10-21T03:34:21.659Z,9.15
2022-10-21T03:35:21.654Z,9.14
2022-10-21T03:36:21.636Z,9.12
2022-10-21T03:37:21.641Z,9.14
2022-10-21T03:38:21.637Z,9.14
2022-10-21T03:39:21.642Z,9.15
2022-10-21T03:40:21.632Z,9.16
2022-10-21T03:41:21.599Z,9.19
2022-10-21T03:42:21.589Z,9.24
2022-10-21T03:43:21.594Z,9.23
2022-10-21T03:44:21.553Z,9.22
2022-10-21T03:45:21.589Z,9.23
2022-10-21T03:46:21.542Z,9.23
2022-10-21T03:47:21.520Z,9.23
2022-10-21T03:48:21.500Z,9.24
2022-10-21T03:49:21.703Z,9.22
2022-10-21T03:50:25.402Z,9.22
2022-10-21T03:51:22.512Z,9.16
2022-10-21T03:52:21.449Z,9.14
2022-10-21T03:53:38.240Z,9.12
2022-10-21T03:54:22.431Z,9.08
2022-10-21T03:55:21.460Z,9.09
2022-10-21T03:56:21.440Z,9.12
2022-10-21T03:57:21.451Z,9.14
2022-10-21T03:58:21.435Z,9.18
2022-10-21T03:59:21.385Z,9.23
2022-10-21T04:00:21.369Z,9.23
2022-10-21T04:01:21.443Z,9.24
2022-10-21T04:02:21.354Z,9.24
2022-10-21T04:03:21.413Z,9.23
2022-10-21T04:04:21.333Z,9.24
2022-10-21T04:05:21.315Z,9.24
2022-10-21T04:06:21.336Z,9.29
2022-10-21T04:07:21.303Z,9.30
2022-10-21T04:08:21.301Z,9.30
2022-10-21T04:09:21.332Z,9.27
2022-10-21T04:10:21.281Z,9.26
2022-10-21T04:11:21.288Z,9.27
2022-10-21T04:12:21.246Z,9.26
2022-10-21T04:13:21.232Z,9.23
2022-10-21T04:14:21.225Z,9.23
2022-10-21T04:15:21.256Z,9.26
2022-10-21T04:16:21.216Z,9.22
2022-10-21T04:17:21.197Z,9.23
2022-10-21T04:18:21.182Z,9.23
2022-10-21T04:19:21.154Z,9.23
2022-10-21T04:20:21.165Z,9.24
2022-10-21T04:21:21.199Z,9.22
2022-10-21T04:22:21.120Z,9.19
2022-10-21T04:23:21.126Z,9.19
2022-10-21T04:24:21.101Z,9.19
2022-10-21T04:25:21.117Z,9.24
2022-10-21T04:26:21.082Z,9.24
2022-10-21T04:27:21.138Z,9.27
2022-10-21T04:28:21.053Z,9.23
2022-10-21T04:29:21.054Z,9.22
2022-10-21T04:30:21.032Z,9.19
2022-10-21T04:31:21.036Z,9.19
2022-10-21T04:32:21.046Z,9.22
2022-10-21T04:33:21.043Z,9.18
2022-10-21T04:34:20.995Z,9.18
2022-10-21T04:35:21.004Z,9.16
2022-10-21T04:36:20.987Z,9.15
2022-10-21T04:37:20.975Z,9.12
2022-10-21T04:38:20.980Z,9.12
2022-10-21T04:39:20.950Z,9.09
2022-10-21T04:40:20.940Z,9.08
2022-10-21T04:41:20.919Z,9.06
2022-10-21T04:42:20.960Z,9.06
2022-10-21T04:43:20.904Z,9.06
2022-10-21T04:44:20.945Z,9.06
2022-10-21T04:45:20.891Z,9.04
2022-10-21T04:46:20.882Z,9.08
2022-10-21T04:47:20.875Z,9.11
2022-10-21T04:48:20.855Z,9.15
2022-10-21T04:49:20.846Z,9.14
2022-10-21T04:50:20.862Z,9.15
2022-10-21T04:51:20.850Z,9.12
2022-10-21T04:52:21.179Z,9.12
2022-10-21T04:53:20.794Z,9.12
2022-10-21T04:54:20.795Z,9.12
2022-10-21T04:55:20.763Z,9.15
2022-10-21T04:56:20.784Z,9.16
2022-10-21T04:57:20.764Z,9.15
2022-10-21T04:58:21.948Z,9.18
2022-10-21T04:59:20.733Z,9.16
2022-10-21T05:00:20.725Z,9.16
2022-10-21T05:01:20.778Z,9.18
2022-10-21T05:02:23.072Z,9.16
2022-10-21T05:03:20.660Z,9.15
2022-10-21T05:04:20.676Z,9.15
2022-10-21T05:05:20.643Z,9.11
2022-10-21T05:06:20.654Z,9.11
2022-10-21T05:07:20.669Z,9.12
2022-10-21T05:08:20.637Z,9.14
2022-10-21T05:09:20.604Z,9.16
2022-10-21T05:10:20.628Z,9.15
2022-10-21T05:11:20.606Z,9.16
2022-10-21T05:12:20.586Z,9.14
2022-10-21T05:13:20.601Z,9.14
2022-10-21T05:14:22.696Z,9.16
2022-10-21T05:15:20.556Z,9.18
2022-10-21T05:16:20.560Z,9.19
2022-10-21T05:17:20.540Z,9.19
2022-10-21T05:18:20.520Z,9.15
2022-10-21T05:19:20.558Z,9.16
2022-10-21T05:20:20.517Z,9.16
2022-10-21T05:21:20.501Z,9.16
2022-10-21T05:22:20.480Z,9.16
2022-10-21T05:23:20.470Z,9.22
2022-10-21T05:24:20.461Z,9.23
2022-10-21T05:25:20.492Z,9.22
2022-10-21T05:26:20.453Z,9.22
2022-10-21T05:27:20.451Z,9.22
2022-10-21T05:28:20.423Z,9.23
2022-10-21T05:29:20.407Z,9.23
2022-10-21T05:30:20.536Z,9.24
2022-10-21T05:31:20.378Z,9.27
2022-10-21T05:32:20.375Z,9.23
2022-10-21T05:33:20.371Z,9.16
2022-10-21T05:34:20.365Z,9.12
2022-10-21T05:35:20.372Z,9.11
2022-10-21T05:36:23.245Z,9.11
2022-10-21T05:37:20.325Z,9.14
2022-10-21T05:38:20.325Z,9.14
2022-10-21T05:39:20.310Z,9.15
2022-10-21T05:40:20.291Z,9.12
2022-10-21T05:41:20.290Z,9.14
2022-10-21T05:42:20.330Z,9.11
2022-10-21T05:43:20.265Z,9.11
2022-10-21T05:44:20.239Z,9.08
2022-10-21T05:45:20.257Z,9.08
2022-10-21T05:46:20.259Z,9.09
2022-10-21T05:47:20.260Z,9.11
2022-10-21T05:48:20.215Z,9.11
2022-10-21T05:49:20.206Z,9.09
2022-10-21T05:50:20.196Z,9.12
2022-10-21T05:51:20.176Z,9.15
2022-10-21T05:52:20.163Z,9.14
2022-10-21T05:53:20.196Z,9.14
2022-10-21T05:54:20.152Z,9.14
2022-10-21T05:55:20.137Z,9.18
2022-10-21T05:56:20.150Z,9.15
2022-10-21T05:57:20.100Z,9.16
2022-10-21T05:58:20.096Z,9.16
2022-10-21T05:59:20.127Z,9.14
2022-10-21T06:00:20.068Z,9.09
2022-10-21T06:01:20.160Z,9.06
2022-10-21T06:02:20.071Z,9.08
2022-10-21T06:03:20.053Z,9.09
2022-10-21T06:04:20.065Z,9.08
2022-10-21T06:05:20.059Z,9.09
2022-10-21T06:06:20.038Z,9.12
2022-10-21T06:07:20.002Z,9.14
2022-10-21T06:08:19.979Z,9.14
2022-10-21T06:09:19.977Z,9.12
2022-10-21T06:10:19.958Z,9.11
2022-10-21T06:11:20.047Z,9.09
2022-10-21T06:12:19.975Z,9.11
2022-10-21T06:13:19.921Z,9.11
2022-10-21T06:14:19.908Z,9.06
2022-10-21T06:15:19.908Z,9.03
2022-10-21T06:16:19.912Z,9.01
2022-10-21T06:17:19.930Z,9.01
2022-10-21T06:18:19.883Z,9.06
2022-10-21T06:19:19.871Z,9.06
2022-10-21T06:20:19.890Z,9.15
2022-10-21T06:21:19.853Z,9.12
2022-10-21T06:22:19.830Z,9.15
2022-10-21T06:23:19.882Z,9.18
2022-10-21T06:24:19.841Z,9.19
2022-10-21T06:25:19.804Z,9.22
2022-10-21T06:26:19.790Z,9.19
2022-10-21T06:27:19.783Z,9.19
2022-10-21T06:28:19.765Z,9.16
2022-10-21T06:29:19.809Z,9.18
2022-10-21T06:30:19.743Z,9.16
2022-10-21T06:31:19.745Z,9.18
2022-10-21T06:32:19.717Z,9.19
2022-10-21T06:33:24.586Z,9.18
2022-10-21T06:34:20.732Z,9.18
2022-10-21T06:35:19.696Z,9.18
2022-10-21T06:36:19.675Z,9.18
2022-10-21T06:37:19.652Z,9.14
2022-10-21T06:38:19.647Z,9.12
2022-10-21T06:39:19.649Z,9.09
2022-10-21T06:40:19.664Z,9.08
2022-10-21T06:41:19.639Z,9.06
2022-10-21T06:42:19.610Z,9.08
2022-10-21T06:43:19.682Z,9.09
2022-10-21T06:44:19.580Z,9.06
2022-10-21T06:45:19.582Z,9.08
2022-10-21T06:46:19.616Z,9.04
2022-10-21T06:47:19.574Z,9.06
2022-10-21T06:48:19.540Z,9.04
2022-10-21T06:49:19.526Z,9.04
2022-10-21T06:50:19.523Z,9.06
2022-10-21T06:51:19.562Z,9.04
2022-10-21T06:52:19.597Z,8.98
2022-10-21T06:53:19.524Z,8.98
2022-10-21T06:54:19.499Z,8.96
2022-10-21T06:55:19.468Z,8.99
2022-10-21T06:56:19.475Z,9.03
2022-10-21T06:57:19.478Z,9.03
2022-10-21T06:58:19.441Z,9.06
2022-10-21T06:59:19.431Z,9.06
2022-10-21T07:00:19.469Z,9.03
2022-10-21T07:01:33.864Z,9.01
2022-10-21T07:02:20.410Z,9.01
2022-10-21T07:03:19.388Z,9.06
2022-10-21T07:04:19.377Z,9.09
2022-10-21T07:05:19.370Z,9.11
2022-10-21T07:06:19.415Z,9.12
2022-10-21T07:07:19.380Z,9.14
2022-10-21T07:08:22.413Z,9.14
2022-10-21T07:09:20.378Z,9.15
2022-10-21T07:10:19.334Z,9.12
2022-10-21T07:11:19.310Z,9.14
2022-10-21T07:12:19.280Z,9.15
2022-10-21T07:13:23.487Z,9.11
2022-10-21T07:14:20.312Z,9.09
2022-10-21T07:15:19.261Z,9.06
2022-10-21T07:16:19.245Z,9.04
2022-10-21T07:17:19.283Z,9.06
2022-10-21T07:18:19.226Z,9.09
2022-10-21T07:19:19.216Z,9.09
2022-10-21T07:20:19.203Z,9.14
2022-10-21T07:21:19.194Z,9.09
2022-10-21T07:22:19.232Z,9.04
2022-10-21T07:23:19.172Z,9.03
2022-10-21T07:24:22.560Z,9.01
2022-10-21T07:25:19.166Z,9.03
2022-10-21T07:26:19.135Z,9.03
2022-10-21T07:27:19.173Z,9.03
2022-10-21T07:28:19.114Z,9.03
2022-10-21T07:29:19.128Z,9.09
2022-10-21T07:30:19.097Z,9.08
2022-10-21T07:31:19.086Z,9.09
2022-10-21T07:32:19.097Z,9.08
2022-10-21T07:33:19.125Z,9.06
2022-10-21T07:34:19.052Z,9.06
2022-10-21T07:35:19.036Z,9.08
2022-10-21T07:36:19.035Z,9.08
2022-10-21T07:37:19.022Z,9.14
2022-10-21T07:38:20.976Z,9.14
2022-10-21T07:39:18.995Z,9.15
2022-10-21T07:40:18.998Z,9.16
2022-10-21T07:41:18.982Z,9.15
2022-10-21T07:42:18.983Z,9.15
2022-10-21T07:43:18.953Z,9.14
2022-10-21T07:44:18.984Z,9.11
2022-10-21T07:45:18.931Z,9.11
2022-10-21T07:46:18.925Z,9.12
2022-10-21T07:47:18.909Z,9.14
2022-10-21T07:48:18.939Z,9.15
2022-10-21T07:49:18.894Z,9.15
2022-10-21T07:50:18.923Z,9.16
2022-10-21T07:51:18.858Z,9.16
2022-10-21T07:52:18.869Z,9.18
2022-10-21T07:53:19.389Z,9.19
2022-10-21T07:54:18.829Z,9.19
2022-10-21T07:55:18.811Z,9.19
2022-10-21T07:56:18.839Z,9.22
2022-10-21T07:57:18.800Z,9.22
2022-10-21T07:58:18.792Z,9.19
2022-10-21T07:59:18.782Z,9.22
2022-10-21T08:00:18.780Z,9.27
2022-10-21T08:01:18.806Z,9.24
2022-10-21T08:02:18.793Z,9.29
2022-10-21T08:03:18.763Z,9.29
2022-10-21T08:04:18.729Z,9.33
2022-10-21T08:05:18.730Z,9.34
2022-10-21T08:06:18.716Z,9.34
2022-10-21T08:07:18.690Z,9.34
2022-10-21T08:08:18.690Z,9.40
2022-10-21T08:09:18.785Z,9.40
2022-10-21T08:10:18.650Z,9.40
2022-10-21T08:11:18.655Z,9.41
2022-10-21T08:12:18.644Z,9.41
2022-10-21T08:13:18.624Z,9.41
2022-10-21T08:14:18.648Z,9.44
2022-10-21T08:15:18.604Z,9.48
2022-10-21T08:16:18.608Z,9.48
2022-10-21T08:17:18.595Z,9.48
2022-10-21T08:18:18.575Z,9.48
2022-10-21T08:19:18.556Z,9.51
2022-10-21T08:20:18.597Z,9.54
2022-10-21T08:21:18.552Z,9.57
2022-10-21T08:22:18.529Z,9.57
2022-10-21T08:23:18.522Z,9.60
2022-10-21T08:24:18.645Z,9.63
2022-10-21T08:25:18.499Z,9.65
2022-10-21T08:26:18.496Z,9.66
2022-10-21T08:27:18.477Z,9.65
2022-10-21T08:28:18.497Z,9.67
2022-10-21T08:29:18.460Z,9.66
2022-10-21T08:30:18.482Z,9.69
2022-10-21T08:31:18.431Z,9.73
2022-10-21T08:32:18.425Z,9.75
2022-10-21T08:33:18.417Z,9.77
2022-10-21T08:34:18.421Z,9.77
2022-10-21T08:35:18.395Z,9.77
2022-10-21T08:36:18.411Z,9.80
2022-10-21T08:37:21.002Z,9.81
2022-10-21T08:38:19.360Z,9.85
2022-10-21T08:39:18.361Z,9.88
2022-10-21T08:40:18.360Z,9.88
2022-10-21T08:41:18.588Z,9.90
2022-10-21T08:42:18.371Z,9.93
2022-10-21T08:43:18.313Z,9.94
2022-10-21T08:44:18.304Z,9.96
2022-10-21T08:45:18.283Z,9.98
2022-10-21T08:46:18.270Z,9.99
2022-10-21T08:47:18.251Z,9.99
2022-10-21T08:48:18.279Z,10.01
2022-10-21T08:49:19.482Z,10.02
2022-10-21T08:50:18.223Z,10.05
2022-10-21T08:51:18.233Z,10.08
2022-10-21T08:52:18.201Z,10.08
2022-10-21T08:53:18.210Z,10.10
2022-10-21T08:54:18.187Z,10.12
2022-10-21T08:55:18.167Z,10.12
2022-10-21T08:56:19.992Z,10.17
2022-10-21T08:57:18.147Z,10.17
2022-10-21T08:58:18.146Z,10.20
2022-10-21T08:59:18.132Z,10.24
2022-10-21T09:00:18.160Z,10.26
2022-10-21T09:01:18.145Z,10.31
2022-10-21T09:02:18.105Z,10.31
2022-10-21T09:03:18.166Z,10.35
2022-10-21T09:04:18.073Z,10.36
2022-10-21T09:05:18.080Z,10.39
2022-10-21T09:06:18.067Z,10.41
2022-10-21T09:07:18.066Z,10.45
2022-10-21T09:08:18.026Z,10.46
2022-10-21T09:09:18.047Z,10.49
2022-10-21T09:10:18.050Z,10.54
2022-10-21T09:11:18.017Z,10.55
2022-10-21T09:12:18.006Z,10.60
2022-10-21T09:13:17.979Z,10.61
2022-10-21T09:14:17.989Z,10.64
2022-10-21T09:15:17.959Z,10.68
2022-10-21T09:16:17.950Z,10.67
2022-10-21T09:17:17.967Z,10.72
2022-10-21T09:18:17.917Z,10.76
2022-10-21T09:19:17.922Z,10.79
2022-10-21T09:20:17.896Z,10.82
2022-10-21T09:21:17.902Z,10.83
2022-10-21T09:22:34.175Z,10.85
2022-10-21T09:23:18.860Z,10.91
2022-10-21T09:24:17.851Z,10.94
2022-10-21T09:25:17.837Z,10.95
2022-10-21T09:26:17.869Z,11.01
2022-10-21T09:27:22.759Z,11.01
2022-10-21T09:28:18.809Z,11.04
2022-10-21T09:29:17.803Z,11.04
2022-10-21T09:30:17.788Z,11.05
2022-10-21T09:31:17.775Z,11.09
2022-10-21T09:32:17.836Z,11.09
2022-10-21T09:33:17.759Z,11.08
2022-10-21T09:34:17.750Z,11.11
2022-10-21T09:35:17.742Z,11.11
2022-10-21T09:36:17.735Z,11.13
2022-10-21T09:37:17.753Z,11.16
2022-10-21T09:38:17.705Z,11.15
2022-10-21T09:39:17.686Z,11.15
2022-10-21T09:40:17.683Z,11.16
2022-10-21T09:41:17.744Z,11.20
2022-10-21T09:42:42.266Z,11.20
2022-10-21T09:43:18.689Z,11.23
2022-10-21T09:44:17.642Z,11.27
2022-10-21T09:45:17.623Z,11.30
2022-10-21T09:46:17.614Z,11.30
2022-10-21T09:47:17.652Z,11.38
2022-10-21T09:48:17.584Z,11.37
2022-10-21T09:49:47.890Z,11.41
2022-10-21T09:50:18.616Z,11.48
2022-10-21T09:51:17.564Z,11.49
2022-10-21T09:52:17.546Z,11.48
2022-10-21T09:53:20.394Z,11.51
2022-10-21T09:54:18.523Z,11.51
2022-10-21T09:55:17.524Z,11.51
2022-10-21T09:56:17.508Z,11.52
2022-10-21T09:57:17.503Z,11.54
2022-10-21T09:58:17.487Z,11.56
2022-10-21T09:59:17.518Z,11.58
2022-10-21T10:00:17.477Z,11.56
2022-10-21T10:01:17.470Z,11.58
2022-10-21T10:02:17.459Z,11.59
2022-10-21T10:03:17.445Z,11.58
2022-10-21T10:04:17.410Z,11.62
2022-10-21T10:05:17.427Z,11.64
2022-10-21T10:06:17.396Z,11.62
2022-10-21T10:07:17.388Z,11.66
2022-10-21T10:08:17.437Z,11.64
2022-10-21T10:09:17.397Z,11.62
2022-10-21T10:10:17.360Z,11.66
2022-10-21T10:11:17.386Z,11.66
2022-10-21T10:12:17.341Z,11.67
2022-10-21T10:13:17.331Z,11.69
2022-10-21T10:14:17.308Z,11.70
2022-10-21T10:15:17.308Z,11.71
2022-10-21T10:16:17.289Z,11.71
2022-10-21T10:17:17.318Z,11.73
2022-10-21T10:18:17.279Z,11.76
2022-10-21T10:19:17.286Z,11.76
2022-10-21T10:20:17.254Z,11.76
2022-10-21T10:21:17.239Z,11.74
2022-10-21T10:22:17.243Z,11.77
2022-10-21T10:23:17.240Z,11.77
2022-10-21T10:24:17.205Z,11.84
2022-10-21T10:25:17.204Z,11.80
2022-10-21T10:26:17.171Z,11.82
2022-10-21T10:27:17.202Z,11.82
2022-10-21T10:28:17.153Z,11.85
2022-10-21T10:29:17.165Z,11.89
2022-10-21T10:30:17.134Z,11.85
2022-10-21T10:31:17.133Z,11.87
2022-10-21T10:32:17.122Z,11.89
2022-10-21T10:33:17.152Z,11.85
2022-10-21T10:34:17.094Z,11.87
2022-10-21T10:35:17.097Z,11.88
2022-10-21T10:36:17.077Z,11.88
2022-10-21T10:37:17.052Z,11.91
2022-10-21T10:38:17.062Z,11.95
2022-10-21T10:39:17.074Z,11.93
2022-10-21T10:40:17.030Z,11.95
2022-10-21T10:41:17.024Z,11.96
2022-10-21T10:42:17.009Z,11.97
2022-10-21T10:43:16.994Z,11.97
2022-10-21T10:44:16.987Z,11.99
2022-10-21T10:45:17.030Z,12.00
2022-10-21T10:46:16.966Z,12.04
2022-10-21T10:47:16.967Z,12.04
2022-10-21T10:48:16.956Z,12.10
2022-10-21T10:49:16.926Z,12.11
2022-10-21T10:50:16.906Z,12.13
2022-10-21T10:51:16.937Z,12.10
2022-10-21T10:52:16.915Z,12.08
2022-10-21T10:53:16.913Z,12.14
2022-10-21T10:54:16.880Z,12.14
2022-10-21T10:55:16.875Z,12.18
2022-10-21T10:56:16.849Z,12.17
2022-10-21T10:57:16.864Z,12.18
2022-10-21T10:58:19.103Z,12.21
2022-10-21T10:59:16.812Z,12.18
2022-10-21T11:00:16.829Z,12.18
2022-10-21T11:01:16.830Z,12.22
2022-10-21T11:02:16.779Z,12.22
2022-10-21T11:03:16.790Z,12.22
2022-10-21T11:04:16.775Z,12.23
2022-10-21T11:05:16.751Z,12.23
2022-10-21T11:06:16.770Z,12.25
2022-10-21T11:07:16.734Z,12.25
2022-10-21T11:08:16.721Z,12.26
2022-10-21T11:09:16.840Z,12.25
2022-10-21T11:10:16.698Z,12.23
2022-10-21T11:11:16.715Z,12.25
2022-10-21T11:12:16.680Z,12.23
2022-10-21T11:13:16.662Z,12.26
2022-10-21T11:14:19.099Z,12.26
2022-10-21T11:15:17.653Z,12.23
2022-10-21T11:16:16.631Z,12.23
2022-10-21T11:17:16.651Z,12.25
2022-10-21T11:18:24.765Z,12.22
2022-10-21T11:19:17.924Z,12.22
2022-10-21T11:20:16.584Z,12.23
2022-10-21T11:21:16.604Z,12.25
2022-10-21T11:22:16.589Z,12.25
2022-10-21T11:23:16.575Z,12.26
2022-10-21T11:24:16.568Z,12.28
2022-10-21T11:25:16.536Z,12.26
2022-10-21T11:26:16.562Z,12.26
2022-10-21T11:27:19.065Z,12.28
2022-10-21T11:28:16.546Z,12.30
2022-10-21T11:29:16.499Z,12.32
2022-10-21T11:30:16.494Z,12.33
2022-10-21T11:31:16.497Z,12.35
2022-10-21T11:32:16.493Z,12.41
2022-10-21T11:33:16.467Z,12.41
2022-10-21T11:34:16.431Z,12.43
2022-10-21T11:35:16.438Z,12.47
2022-10-21T11:36:16.430Z,12.50
2022-10-21T11:37:16.425Z,12.51
2022-10-21T11:38:16.419Z,12.50
2022-10-21T11:39:21.236Z,12.54
2022-10-21T11:40:17.387Z,12.55
2022-10-21T11:42:16.375Z,12.62
2022-10-21T11:43:16.338Z,12.65
2022-10-21T11:44:16.329Z,12.65
2022-10-21T11:45:16.318Z,12.68
2022-10-21T11:46:16.317Z,12.69
2022-10-21T11:47:16.319Z,12.69
2022-10-21T11:48:16.279Z,12.73
2022-10-21T11:49:16.273Z,12.76
2022-10-21T11:50:16.311Z,12.73
2022-10-21T11:51:16.653Z,12.77
2022-10-21T11:52:16.292Z,12.80
2022-10-21T11:53:16.222Z,12.79
2022-10-21T11:54:16.243Z,12.81
2022-10-21T11:55:16.210Z,12.81
2022-10-21T11:56:16.212Z,12.80
2022-10-21T11:57:16.183Z,12.83
2022-10-21T11:58:16.202Z,12.81
2022-10-21T11:59:16.193Z,12.83
2022-10-21T12:00:16.162Z,12.83
2022-10-21T12:01:16.135Z,12.86
2022-10-21T12:02:16.244Z,12.84
2022-10-21T12:03:16.155Z,12.84
2022-10-21T12:04:16.097Z,12.84
2022-10-21T12:05:16.107Z,12.84
2022-10-21T12:06:16.094Z,12.87
2022-10-21T12:07:16.086Z,12.87
2022-10-21T12:08:16.158Z,12.87
2022-10-21T12:09:16.087Z,12.88
2022-10-21T12:10:16.055Z,12.87
2022-10-21T12:11:16.061Z,12.93
2022-10-21T12:12:16.039Z,12.95
2022-10-21T12:13:16.026Z,12.98
2022-10-21T12:14:16.040Z,12.99
2022-10-21T12:15:16.030Z,12.96
2022-10-21T12:16:15.987Z,13.01
2022-10-21T12:17:15.983Z,13.04
2022-10-21T12:18:15.958Z,13.05
2022-10-21T12:19:15.936Z,13.05
2022-10-21T12:20:15.972Z,13.06
2022-10-21T12:21:15.990Z,13.14
2022-10-21T12:22:15.912Z,13.16
2022-10-21T12:23:15.908Z,13.17
2022-10-21T12:24:15.918Z,13.20
2022-10-21T12:25:15.875Z,13.23
2022-10-21T12:26:15.886Z,13.23
2022-10-21T12:27:15.907Z,13.26
2022-10-21T12:28:15.888Z,13.27
2022-10-21T12:29:15.829Z,13.30
2022-10-21T12:30:15.851Z,13.30
2022-10-21T12:31:15.820Z,13.36
2022-10-21T12:32:15.823Z,13.38
2022-10-21T12:33:15.823Z,13.35
2022-10-21T12:34:15.781Z,13.32
2022-10-21T12:35:15.781Z,13.32
2022-10-21T12:36:15.754Z,13.30
2022-10-21T12:37:15.740Z,13.32
2022-10-21T12:38:15.744Z,13.30
2022-10-21T12:39:15.750Z,13.29
2022-10-21T12:40:15.797Z,13.29
2022-10-21T12:41:15.745Z,13.32
2022-10-21T12:42:15.692Z,13.27
2022-10-21T12:43:15.685Z,13.24
2022-10-21T12:44:15.673Z,13.27
2022-10-21T12:45:15.705Z,13.27
2022-10-21T12:46:15.649Z,13.27
2022-10-21T12:47:15.646Z,13.27
2022-10-21T12:48:15.625Z,13.26
2022-10-21T12:49:15.648Z,13.26
2022-10-21T12:50:15.636Z,13.24
2022-10-21T12:51:15.614Z,13.29
2022-10-21T12:52:15.594Z,13.26
2022-10-21T12:53:15.567Z,13.27
2022-10-21T12:54:15.575Z,13.24
2022-10-21T12:55:15.606Z,13.24
2022-10-21T12:56:15.567Z,13.26
2022-10-21T12:57:15.529Z,13.29
2022-10-21T12:58:15.525Z,13.29
2022-10-21T12:59:15.518Z,13.27
2022-10-21T13:00:15.584Z,13.29
2022-10-21T13:01:15.586Z,13.29
2022-10-21T13:02:15.467Z,13.27
2022-10-21T13:03:15.477Z,13.24
2022-10-21T13:04:15.446Z,13.26
2022-10-21T13:05:15.431Z,13.24
2022-10-21T13:06:15.436Z,13.23
2022-10-21T13:07:15.459Z,13.23
2022-10-21T13:08:15.408Z,13.23
2022-10-21T13:09:15.433Z,13.21
2022-10-21T13:10:15.430Z,13.20
2022-10-21T13:11:15.391Z,13.20